createdAt,value
2022-12-25T00:01:20.634Z,98441.67
2022-12-25T00:03:55.889Z,98441.56
2022-12-25T00:06:28.374Z,98442.22
2022-12-25T00:09:01.217Z,98450.39
2022-12-25T00:11:33.710Z,98454.23
2022-12-25T00:14:06.562Z,98455.98
2022-12-25T00:16:39.550Z,98453.97
2022-12-25T00:19:12.038Z,98447.42
2022-12-25T00:21:44.555Z,98443.11
2022-12-25T00:24:16.895Z,98449.27
2022-12-25T00:26:49.312Z,98451.66
2022-12-25T00:29:22.353Z,98454.30
2022-12-25T00:31:58.119Z,98455.61
2022-12-25T00:34:30.543Z,98452.71
2022-12-25T00:37:03.494Z,98453.52
2022-12-25T00:39:35.891Z,98463.49
2022-12-25T00:42:20.894Z,98468.79
2022-12-25T00:44:53.960Z,98480.92
2022-12-25T00:47:29.610Z,98484.52
2022-12-25T00:50:02.371Z,98486.96
2022-12-25T00:52:35.188Z,98488.53
2022-12-25T00:55:08.307Z,98492.77
2022-12-25T00:57:40.775Z,98498.17
2022-12-25T01:00:17.214Z,98504.45
2022-12-25T01:02:49.634Z,98507.00
2022-12-25T01:05:22.204Z,98508.92
2022-12-25T01:07:54.508Z,98510.52
2022-12-25T01:10:26.945Z,98511.14
2022-12-25T01:13:02.523Z,98509.15
2022-12-25T01:15:37.801Z,98515.75
2022-12-25T01:18:12.875Z,98523.40
2022-12-25T01:20:45.815Z,98524.79
2022-12-25T01:23:18.281Z,98523.66
2022-12-25T01:25:51.433Z,98520.03
2022-12-25T01:28:24.068Z,98515.83
2022-12-25T01:30:56.425Z,98517.27
2022-12-25T01:33:28.810Z,98514.66
2022-12-25T01:36:01.153Z,98511.92
2022-12-25T01:38:33.533Z,98511.79
2022-12-25T01:41:09.287Z,98518.59
2022-12-25T01:43:59.851Z,98519.33
2022-12-25T01:46:30.860Z,98519.50
2022-12-25T01:49:06.766Z,98520.51
2022-12-25T01:51:43.494Z,98519.54
2022-12-25T01:54:21.534Z,98520.45
2022-12-25T01:56:57.047Z,98519.30
2022-12-25T01:59:30.893Z,98521.50
2022-12-25T02:02:04.540Z,98526.41
2022-12-25T02:04:44.227Z,98528.89
2022-12-25T02:07:20.118Z,98529.94
2022-12-25T02:09:52.994Z,98535.76
2022-12-25T02:12:27.825Z,98536.54
2022-12-25T02:15:05.668Z,98542.85
2022-12-25T02:17:46.692Z,98549.23
2022-12-25T02:20:49.730Z,98551.91
2022-12-25T02:23:54.413Z,98549.73
2022-12-25T02:26:49.923Z,98548.45
2022-12-25T02:29:28.316Z,98546.61
2022-12-25T02:32:15.724Z,98546.86
2022-12-25T02:34:54.759Z,98545.36
2022-12-25T02:37:33.183Z,98549.09
2022-12-25T02:40:17.531Z,98550.02
2022-12-25T02:43:14.720Z,98548.65
2022-12-25T02:46:11.144Z,98547.48
2022-12-25T02:49:08.291Z,98551.11
2022-12-25T02:52:05.904Z,98549.29
2022-12-25T02:55:02.521Z,98553.66
2022-12-25T02:57:57.995Z,98556.70
2022-12-25T03:00:50.678Z,98559.21
2022-12-25T03:03:49.208Z,98561.85
2022-12-25T03:06:47.053Z,98563.06
2022-12-25T03:09:41.385Z,98558.18
2022-12-25T03:12:22.996Z,98556.96
2022-12-25T03:15:12.899Z,98558.80
2022-12-25T03:17:45.454Z,98564.36
2022-12-25T03:20:35.705Z,98562.61
2022-12-25T03:23:27.957Z,98562.73
2022-12-25T03:26:19.599Z,98561.16
2022-12-25T03:28:54.927Z,98567.67
2022-12-25T03:31:38.071Z,98574.86
2022-12-25T03:34:51.016Z,98578.48
2022-12-25T03:37:51.415Z,98573.78
2022-12-25T03:40:52.714Z,98575.73
2022-12-25T03:43:57.080Z,98577.92
2022-12-25T03:46:55.020Z,98580.97
2022-12-25T03:49:50.144Z,98582.88
2022-12-25T03:52:41.337Z,98583.98
2022-12-25T03:55:33.359Z,98586.09
2022-12-25T03:58:23.395Z,98589.09
2022-12-25T04:01:16.469Z,98591.08
2022-12-25T04:04:09.049Z,98597.52
2022-12-25T04:06:59.176Z,98592.85
2022-12-25T04:09:51.325Z,98598.02
2022-12-25T04:12:44.053Z,98602.48
2022-12-25T04:15:34.197Z,98604.65
2022-12-25T04:18:25.189Z,98606.02
2022-12-25T04:21:17.024Z,98613.23
2022-12-25T04:24:08.160Z,98619.98
2022-12-25T04:26:58.960Z,98621.93
2022-12-25T04:29:48.515Z,98620.96
2022-12-25T04:32:38.537Z,98623.18
2022-12-25T04:35:29.421Z,98624.30
2022-12-25T04:38:01.924Z,98623.85
2022-12-25T04:40:34.381Z,98634.15
2022-12-25T04:43:06.902Z,98634.52
2022-12-25T04:45:39.306Z,98635.73
2022-12-25T04:48:14.346Z,98635.10
2022-12-25T04:50:49.713Z,98637.52
2022-12-25T04:53:22.199Z,98639.18
2022-12-25T04:56:03.872Z,98636.89
2022-12-25T04:58:36.250Z,98628.55
2022-12-25T05:01:09.035Z,98624.20
2022-12-25T05:03:42.945Z,98616.80
2022-12-25T05:06:16.116Z,98619.70
2022-12-25T05:08:48.501Z,98626.63
2022-12-25T05:11:21.013Z,98628.73
2022-12-25T05:13:53.386Z,98629.23
2022-12-25T05:16:29.261Z,98628.78
2022-12-25T05:19:05.813Z,98630.00
2022-12-25T05:21:38.307Z,98627.76
2022-12-25T05:24:11.064Z,98633.45
2022-12-25T05:26:43.848Z,98633.86
2022-12-25T05:29:18.295Z,98641.46
2022-12-25T05:31:50.712Z,98652.70
2022-12-25T05:34:26.370Z,98659.62
2022-12-25T05:36:58.801Z,98661.09
2022-12-25T05:39:34.587Z,98663.89
2022-12-25T05:42:10.517Z,98668.27
2022-12-25T05:44:45.900Z,98670.84
2022-12-25T05:47:18.408Z,98670.02
2022-12-25T05:49:50.900Z,98674.13
2022-12-25T05:52:23.482Z,98674.26
2022-12-25T05:54:55.836Z,98671.10
2022-12-25T05:57:29.230Z,98676.92
2022-12-25T06:00:01.643Z,98683.91
2022-12-25T06:02:37.950Z,98688.44
2022-12-25T06:05:13.662Z,98693.39
2022-12-25T06:07:46.045Z,98690.86
2022-12-25T06:10:18.602Z,98690.69
2022-12-25T06:12:50.929Z,98693.28
2022-12-25T06:15:23.439Z,98697.93
2022-12-25T06:17:56.231Z,98699.92
2022-12-25T06:20:28.866Z,98705.36
2022-12-25T06:23:01.287Z,98710.44
2022-12-25T06:25:36.878Z,98712.74
2022-12-25T06:28:12.337Z,98711.81
2022-12-25T06:30:44.857Z,98718.65
2022-12-25T06:33:17.242Z,98721.42
2022-12-25T06:35:52.038Z,98724.59
2022-12-25T06:38:26.916Z,98734.19
2022-12-25T06:41:03.805Z,98739.42
2022-12-25T06:43:36.260Z,98746.50
2022-12-25T06:46:11.000Z,98748.89
2022-12-25T06:48:49.339Z,98756.16
2022-12-25T06:51:24.469Z,98757.28
2022-12-25T06:54:00.671Z,98766.48
2022-12-25T06:56:34.146Z,98767.81
2022-12-25T06:59:11.632Z,98769.13
2022-12-25T07:01:51.211Z,98769.20
2022-12-25T07:04:28.361Z,98769.88
2022-12-25T07:07:07.988Z,98780.30
2022-12-25T07:09:42.723Z,98784.23
2022-12-25T07:12:20.866Z,98787.28
2022-12-25T07:14:55.061Z,98791.81
2022-12-25T07:17:27.454Z,98795.98
2022-12-25T07:19:59.794Z,98800.38
2022-12-25T07:22:32.461Z,98810.64
2022-12-25T07:25:04.832Z,98818.27
2022-12-25T07:27:37.133Z,98819.66
2022-12-25T07:30:11.351Z,98820.95
2022-12-25T07:32:49.851Z,98821.67
2022-12-25T07:35:22.640Z,98825.48
2022-12-25T07:37:55.011Z,98829.54
2022-12-25T07:40:27.287Z,98831.80
2022-12-25T07:42:59.599Z,98827.33
2022-12-25T07:45:32.005Z,98826.52
2022-12-25T07:48:06.292Z,98827.27
2022-12-25T07:50:40.969Z,98823.02
2022-12-25T07:53:13.411Z,98826.42
2022-12-25T07:55:45.722Z,98822.58
2022-12-25T07:58:23.173Z,98819.34
2022-12-25T08:00:58.839Z,98822.20
2022-12-25T08:03:32.569Z,98823.05
2022-12-25T08:06:06.930Z,98832.38
2022-12-25T08:08:40.300Z,98839.02
2022-12-25T08:11:13.336Z,98842.35
2022-12-25T08:13:45.694Z,98837.39
2022-12-25T08:16:18.128Z,98840.39
2022-12-25T08:18:50.871Z,98841.41
2022-12-25T08:21:23.339Z,98841.85
2022-12-25T08:23:57.289Z,98837.95
2022-12-25T08:26:29.978Z,98829.54
2022-12-25T08:29:03.121Z,98824.98
2022-12-25T08:31:39.437Z,98817.13
2022-12-25T08:34:15.280Z,98817.82
2022-12-25T08:36:47.715Z,98822.94
2022-12-25T08:39:20.244Z,98820.14
2022-12-25T08:41:52.482Z,98814.79
2022-12-25T08:44:26.100Z,98816.94
2022-12-25T08:46:58.297Z,98822.77
2022-12-25T08:49:30.625Z,98827.73
2022-12-25T08:52:05.487Z,98824.20
2022-12-25T08:54:38.004Z,98815.90
2022-12-25T08:57:10.302Z,98829.52
2022-12-25T08:59:45.407Z,98839.11
2022-12-25T09:02:19.735Z,98848.29
2022-12-25T09:04:52.562Z,98854.97
2022-12-25T09:07:24.944Z,98858.52
2022-12-25T09:09:58.309Z,98849.80
2022-12-25T09:12:30.615Z,98843.09
2022-12-25T09:15:02.908Z,98846.25
2022-12-25T09:17:35.797Z,98844.84
2022-12-25T09:20:10.065Z,98841.42
2022-12-25T09:22:42.286Z,98845.98
2022-12-25T09:25:15.036Z,98845.24
2022-12-25T09:27:47.392Z,98854.35
2022-12-25T09:30:20.018Z,98859.42
2022-12-25T09:32:52.343Z,98851.66
2022-12-25T09:35:24.716Z,98844.71
2022-12-25T09:37:57.158Z,98835.70
2022-12-25T09:40:33.457Z,98843.71
2022-12-25T09:43:06.884Z,98845.92
2022-12-25T09:45:42.824Z,98840.08
2022-12-25T09:48:17.669Z,98843.77
2022-12-25T09:50:55.117Z,98844.54
2022-12-25T09:53:30.254Z,98840.58
2022-12-25T09:56:10.593Z,98851.29
2022-12-25T09:58:45.782Z,98863.08
2022-12-25T10:01:30.301Z,98856.58
2022-12-25T10:04:34.749Z,98848.61
2022-12-25T10:07:18.235Z,98839.55
2022-12-25T10:10:04.206Z,98825.81
2022-12-25T10:12:47.117Z,98828.42
2022-12-25T10:15:36.710Z,98827.13
2022-12-25T10:18:31.975Z,98825.17
2022-12-25T10:21:13.383Z,98771.67
2022-12-25T10:23:56.478Z,98741.75
2022-12-25T10:26:34.898Z,98744.21
2022-12-25T10:29:14.545Z,98760.69
2022-12-25T10:31:51.736Z,98772.73
2022-12-25T10:34:27.945Z,98788.23
2022-12-25T10:37:02.131Z,98791.31
2022-12-25T10:39:40.981Z,98772.27
2022-12-25T10:42:31.931Z,98774.79
2022-12-25T10:45:08.028Z,98765.96
2022-12-25T10:47:43.505Z,98759.20
2022-12-25T10:50:23.807Z,98738.27
2022-12-25T10:53:00.661Z,98743.66
2022-12-25T10:55:33.262Z,98708.19
2022-12-25T10:58:07.134Z,98703.05
2022-12-25T11:00:39.631Z,98701.83
2022-12-25T11:03:25.046Z,98701.80
2022-12-25T11:05:58.327Z,98697.23
2022-12-25T11:08:33.555Z,98660.20
2022-12-25T11:11:07.455Z,98641.67
2022-12-25T11:13:49.045Z,98636.46
2022-12-25T11:16:33.659Z,98644.84
2022-12-25T11:19:30.536Z,98642.16
2022-12-25T11:22:05.256Z,98628.89
2022-12-25T11:24:37.593Z,98613.48
2022-12-25T11:27:21.583Z,98621.62
2022-12-25T11:29:57.354Z,98617.08
2022-12-25T11:32:35.210Z,98615.14
2022-12-25T11:35:14.189Z,98623.55
2022-12-25T11:37:50.257Z,98641.56
2022-12-25T11:40:26.359Z,98645.41
2022-12-25T11:43:08.353Z,98650.06
2022-12-25T11:45:46.545Z,98640.88
2022-12-25T11:48:26.391Z,98630.98
2022-12-25T11:51:01.465Z,98627.02
2022-12-25T11:53:42.629Z,98633.71
2022-12-25T11:56:19.923Z,98640.13
2022-12-25T11:58:54.417Z,98649.46
2022-12-25T12:01:34.599Z,98661.89
2022-12-25T12:04:16.016Z,98676.48
2022-12-25T12:06:53.925Z,98687.73
2022-12-25T12:09:45.544Z,98699.16
2022-12-25T12:12:28.308Z,98708.55
2022-12-25T12:15:08.750Z,98720.30
2022-12-25T12:17:42.800Z,98726.33
2022-12-25T12:20:35.433Z,98724.67
2022-12-25T12:23:18.257Z,98720.55
2022-12-25T12:26:01.477Z,98719.67
2022-12-25T12:28:46.079Z,98719.54
2022-12-25T12:31:18.792Z,98730.41
2022-12-25T12:33:58.589Z,98726.08
2022-12-25T12:36:37.015Z,98718.88
2022-12-25T12:39:22.816Z,98715.91
2022-12-25T12:41:55.570Z,98708.85
2022-12-25T12:44:33.102Z,98690.30
2022-12-25T12:47:05.716Z,98688.28
2022-12-25T12:49:38.213Z,98691.44
2022-12-25T12:52:24.671Z,98701.69
2022-12-25T12:55:01.680Z,98712.20
2022-12-25T12:57:39.634Z,98717.07
2022-12-25T13:00:21.514Z,98725.78
2022-12-25T13:03:11.098Z,98719.09
2022-12-25T13:05:48.152Z,98694.92
2022-12-25T13:08:35.559Z,98694.59
2022-12-25T13:11:15.743Z,98699.98
2022-12-25T13:13:49.945Z,98709.31
2022-12-25T13:16:28.264Z,98717.62
2022-12-25T13:19:08.298Z,98720.25
2022-12-25T13:21:43.078Z,98727.92
2022-12-25T13:24:23.649Z,98742.02
2022-12-25T13:26:56.788Z,98755.80
2022-12-25T13:29:36.626Z,98763.83
2022-12-25T13:32:20.263Z,98768.04
2022-12-25T13:34:53.119Z,98773.85
2022-12-25T13:37:29.876Z,98770.92
2022-12-25T13:40:21.596Z,98780.17
2022-12-25T13:42:56.781Z,98796.98
2022-12-25T13:45:34.131Z,98799.83
2022-12-25T13:48:22.276Z,98809.22
2022-12-25T13:51:04.214Z,98804.69
2022-12-25T13:53:39.394Z,98804.06
2022-12-25T13:56:18.430Z,98807.88
2022-12-25T13:58:51.557Z,98809.41
2022-12-25T14:01:23.909Z,98802.91
2022-12-25T14:03:57.305Z,98798.41
2022-12-25T14:06:33.091Z,98797.21
2022-12-25T14:09:05.652Z,98797.56
2022-12-25T14:11:38.669Z,98796.07
2022-12-25T14:14:19.388Z,98802.27
2022-12-25T14:16:58.515Z,98805.89
2022-12-25T14:19:35.608Z,98805.34
2022-12-25T14:22:18.684Z,98807.27
2022-12-25T14:24:51.369Z,98804.73
2022-12-25T14:27:26.426Z,98803.68
2022-12-25T14:30:00.730Z,98801.63
2022-12-25T14:32:40.827Z,98803.52
2022-12-25T14:35:23.106Z,98805.48
2022-12-25T14:38:01.119Z,98809.77
2022-12-25T14:40:36.101Z,98807.67
2022-12-25T14:43:23.024Z,98796.70
2022-12-25T14:46:03.207Z,98791.98
2022-12-25T14:48:35.962Z,98790.06
2022-12-25T14:51:17.111Z,98785.68
2022-12-25T14:53:57.618Z,98785.73
2022-12-25T14:56:38.014Z,98795.29
2022-12-25T14:59:20.392Z,98804.33
2022-12-25T15:01:58.396Z,98810.36
2022-12-25T15:04:31.695Z,98817.92
2022-12-25T15:07:09.561Z,98825.15
2022-12-25T15:09:42.628Z,98827.44
2022-12-25T15:12:15.561Z,98827.12
2022-12-25T15:14:48.506Z,98831.50
2022-12-25T15:17:27.598Z,98835.40
2022-12-25T15:20:04.214Z,98835.34
2022-12-25T15:23:02.274Z,98834.72
2022-12-25T15:25:29.589Z,98842.56
2022-12-25T15:28:02.097Z,98845.80
2022-12-25T15:30:35.727Z,98840.34
2022-12-25T15:33:08.748Z,98836.36
2022-12-25T15:35:46.955Z,98830.83
2022-12-25T15:38:21.817Z,98809.45
2022-12-25T15:41:06.246Z,98806.83
2022-12-25T15:43:41.344Z,98807.30
2022-12-25T15:46:20.581Z,98805.73
2022-12-25T15:48:53.365Z,98799.73
2022-12-25T15:51:25.894Z,98793.19
2022-12-25T15:54:02.067Z,98793.48
2022-12-25T15:56:41.850Z,98791.08
2022-12-25T15:59:17.068Z,98786.03
2022-12-25T16:01:54.495Z,98784.34
2022-12-25T16:04:31.434Z,98789.33
2022-12-25T16:07:03.930Z,98779.39
2022-12-25T16:09:38.308Z,98781.66
2022-12-25T16:12:11.705Z,98780.98
2022-12-25T16:14:46.336Z,98783.83
2022-12-25T16:17:20.359Z,98783.98
2022-12-25T16:19:53.163Z,98776.60
2022-12-25T16:22:26.843Z,98766.13
2022-12-25T16:25:02.273Z,98756.46
2022-12-25T16:27:40.444Z,98742.99
2022-12-25T16:30:18.486Z,98751.98
2022-12-25T16:32:54.283Z,98741.91
2022-12-25T16:35:30.644Z,98747.00
2022-12-25T16:38:03.413Z,98747.71
2022-12-25T16:40:36.722Z,98749.64
2022-12-25T16:43:12.319Z,98748.63
2022-12-25T16:45:44.721Z,98735.51
2022-12-25T16:48:17.299Z,98726.09
2022-12-25T16:50:54.365Z,98731.28
2022-12-25T16:53:26.897Z,98742.19
2022-12-25T16:56:08.298Z,98745.97
2022-12-25T16:58:40.695Z,98740.31
2022-12-25T17:01:14.452Z,98736.30
2022-12-25T17:03:47.337Z,98734.36
2022-12-25T17:06:24.681Z,98734.17
2022-12-25T17:08:59.990Z,98725.35
2022-12-25T17:11:33.231Z,98724.10
2022-12-25T17:14:07.700Z,98719.97
2022-12-25T17:16:41.061Z,98710.98
2022-12-25T17:19:19.970Z,98706.58
2022-12-25T17:21:54.807Z,98702.85
2022-12-25T17:24:27.164Z,98708.76
2022-12-25T17:26:59.427Z,98708.36
2022-12-25T17:29:33.064Z,98708.44
2022-12-25T17:32:05.422Z,98706.92
2022-12-25T17:34:38.027Z,98704.48
2022-12-25T17:37:10.757Z,98689.35
2022-12-25T17:39:43.300Z,98688.27
2022-12-25T17:42:15.590Z,98693.05
2022-12-25T17:44:48.912Z,98688.55
2022-12-25T17:47:21.279Z,98683.00
2022-12-25T17:49:53.687Z,98689.19
2022-12-25T17:52:26.091Z,98687.59
2022-12-25T17:54:58.387Z,98686.34
2022-12-25T17:57:30.662Z,98693.84
2022-12-25T18:00:03.046Z,98705.70
2022-12-25T18:02:38.077Z,98711.91
2022-12-25T18:05:12.039Z,98709.75
2022-12-25T18:07:44.370Z,98707.40
2022-12-25T18:10:17.173Z,98702.59
2022-12-25T18:12:49.771Z,98699.31
2022-12-25T18:15:22.755Z,98700.73
2022-12-25T18:17:55.779Z,98697.35
2022-12-25T18:20:31.840Z,98699.11
2022-12-25T18:23:08.512Z,98707.73
2022-12-25T18:25:43.940Z,98713.45
2022-12-25T18:28:16.303Z,98702.91
2022-12-25T18:30:49.821Z,98702.48
2022-12-25T18:33:22.327Z,98704.99
2022-12-25T18:36:00.022Z,98702.05
2022-12-25T18:38:32.806Z,98700.79
2022-12-25T18:41:07.632Z,98696.45
2022-12-25T18:43:53.090Z,98691.80
2022-12-25T18:46:28.288Z,98680.95
2022-12-25T18:49:01.292Z,98670.26
2022-12-25T18:51:37.150Z,98667.98
2022-12-25T18:54:09.743Z,98667.73
2022-12-25T18:56:48.402Z,98667.25
2022-12-25T18:59:24.487Z,98662.60
2022-12-25T19:01:56.948Z,98664.45
2022-12-25T19:04:33.717Z,98659.93
2022-12-25T19:07:06.042Z,98658.23
2022-12-25T19:09:43.368Z,98661.09
2022-12-25T19:12:15.773Z,98659.91
2022-12-25T19:14:48.656Z,98659.59
2022-12-25T19:17:23.433Z,98650.92
2022-12-25T19:19:59.078Z,98643.98
2022-12-25T19:22:33.202Z,98640.35
2022-12-25T19:25:05.975Z,98642.19
2022-12-25T19:27:38.192Z,98638.12
2022-12-25T19:30:12.941Z,98633.27
2022-12-25T19:32:45.220Z,98637.14
2022-12-25T19:35:17.975Z,98639.99
2022-12-25T19:37:50.395Z,98638.92
2022-12-25T19:40:22.769Z,98632.23
2022-12-25T19:42:55.292Z,98623.48
2022-12-25T19:45:27.605Z,98620.32
2022-12-25T19:48:00.036Z,98624.09
2022-12-25T19:50:34.760Z,98626.47
2022-12-25T19:53:07.127Z,98623.24
2022-12-25T19:55:39.427Z,98618.78
2022-12-25T19:58:12.112Z,98613.65
2022-12-25T20:00:44.542Z,98606.08
2022-12-25T20:03:17.018Z,98607.04
2022-12-25T20:05:49.398Z,98608.44
2022-12-25T20:08:22.123Z,98606.75
2022-12-25T20:10:54.516Z,98609.94
2022-12-25T20:13:27.317Z,98607.27
2022-12-25T20:16:04.629Z,98598.23
2022-12-25T20:18:37.285Z,98592.05
2022-12-25T20:21:16.359Z,98584.39
2022-12-25T20:23:53.847Z,98586.77
2022-12-25T20:26:33.690Z,98582.89
2022-12-25T20:29:06.942Z,98582.73
2022-12-25T20:31:40.461Z,98584.80
2022-12-25T20:34:18.468Z,98578.23
2022-12-25T20:36:51.582Z,98571.59
2022-12-25T20:39:24.950Z,98560.63
2022-12-25T20:41:57.643Z,98559.06
2022-12-25T20:44:31.596Z,98561.11
2022-12-25T20:47:03.896Z,98557.14
2022-12-25T20:49:36.655Z,98547.73
2022-12-25T20:52:09.394Z,98538.56
2022-12-25T20:54:42.387Z,98535.70
2022-12-25T20:57:14.758Z,98536.45
2022-12-25T20:59:47.502Z,98544.70
2022-12-25T21:02:35.402Z,98544.59
2022-12-25T21:05:12.608Z,98538.95
2022-12-25T21:07:45.071Z,98533.80
2022-12-25T21:10:17.676Z,98529.55
2022-12-25T21:12:50.071Z,98532.18
2022-12-25T21:15:22.505Z,98526.77
2022-12-25T21:17:54.739Z,98523.22
2022-12-25T21:20:27.036Z,98515.36
2022-12-25T21:22:59.728Z,98512.74
2022-12-25T21:25:32.111Z,98507.55
2022-12-25T21:28:04.482Z,98504.90
2022-12-25T21:30:37.137Z,98503.02
2022-12-25T21:33:26.817Z,98498.91
2022-12-25T21:36:05.340Z,98496.05
2022-12-25T21:38:38.043Z,98493.57
2022-12-25T21:41:12.148Z,98490.67
2022-12-25T21:43:44.564Z,98490.73
2022-12-25T21:46:18.591Z,98484.48
2022-12-25T21:48:51.669Z,98476.61
2022-12-25T21:51:45.695Z,98467.49
2022-12-25T21:54:18.515Z,98459.97
2022-12-25T21:56:51.249Z,98449.55
2022-12-25T21:59:24.489Z,98443.30
2022-12-25T22:01:56.899Z,98441.07
2022-12-25T22:04:29.298Z,98448.56
2022-12-25T22:07:19.776Z,98455.77
2022-12-25T22:09:53.960Z,98458.66
2022-12-25T22:12:43.888Z,98459.55
2022-12-25T22:15:16.371Z,98457.15
2022-12-25T22:18:06.443Z,98451.11
2022-12-25T22:20:39.225Z,98448.63
2022-12-25T22:23:11.615Z,98445.40
2022-12-25T22:25:43.948Z,98441.65
2022-12-25T22:28:16.422Z,98436.46
2022-12-25T22:30:48.823Z,98444.04
2022-12-25T22:33:22.627Z,98443.27
2022-12-25T22:36:04.261Z,98444.80
2022-12-25T22:38:36.690Z,98443.10
2022-12-25T22:41:09.522Z,98437.35
2022-12-25T22:44:15.823Z,98433.08
2022-12-25T22:46:34.161Z,98424.52
2022-12-25T22:49:06.667Z,98421.05
2022-12-25T22:51:38.983Z,98425.56
2022-12-25T22:54:13.158Z,98423.09
2022-12-25T22:56:49.461Z,98421.23
2022-12-25T22:59:23.713Z,98425.94
2022-12-25T23:01:56.708Z,98431.16
2022-12-25T23:04:29.146Z,98432.00
2022-12-25T23:07:02.089Z,98423.95
2022-12-25T23:09:35.300Z,98417.80
2022-12-25T23:12:28.540Z,98412.83
2022-12-25T23:15:01.057Z,98401.66
2022-12-25T23:17:50.978Z,98392.08
2022-12-25T23:20:41.222Z,98383.77
2022-12-25T23:23:34.971Z,98377.52
2022-12-25T23:26:10.566Z,98373.08
2022-12-25T23:29:01.871Z,98382.23
2022-12-25T23:31:37.923Z,98391.38
2022-12-25T23:34:11.191Z,98379.50
2022-12-25T23:36:43.474Z,98369.86
2022-12-25T23:39:18.646Z,98367.14
2022-12-25T23:41:51.155Z,98365.13
2022-12-25T23:44:23.593Z,98351.54
2022-12-25T23:46:56.166Z,98339.19
2022-12-25T23:49:28.793Z,98340.23
2022-12-25T23:52:04.745Z,98348.11
2022-12-25T23:54:37.316Z,98358.63
2022-12-25T23:57:09.898Z,98363.72
2022-12-25T23:59:42.773Z,98375.58
